Time;durP1;ratioP1;P1;durP2;ratioP2;P2;SDS_P1;SDS_P2;PMS_P1;PMS_P2;Temp;Humidity;BMP_temperature;BMP_pressure;BME280_temperature;BME280_humidity;BME280_pressure;Samples;Min_cycle;Max_cycle;Signal;HPM_P1;HPM_P2
2023/01/31 00:02:08;;;;;;;0.57;0.40;;;;;;;;;;5026107;28;20677;-77
2023/01/31 00:04:34;;;;;;;0.68;0.30;;;;;;;;;;5025857;28;20112;-76
2023/01/31 00:07:00;;;;;;;1.88;0.77;;;;;;;;;;5026243;28;20144;-76
2023/01/31 00:09:26;;;;;;;1.73;0.38;;;;;;;;;;5025870;28;20053;-77
2023/01/31 00:11:52;;;;;;;2.15;0.20;;;;;;;;;;5029269;28;20059;-77
2023/01/31 00:14:19;;;;;;;0.43;0.40;;;;;;;;;;5026542;28;20049;-77
2023/01/31 00:16:45;;;;;;;2.10;1.15;;;;;;;;;;5026038;28;20491;-78
2023/01/31 00:19:11;;;;;;;1.55;0.68;;;;;;;;;;5026091;28;20041;-77
2023/01/31 00:21:42;;;;;;;1.63;0.35;;;;;;;;;;5025406;28;20044;-77
2023/01/31 00:24:08;;;;;;;0.93;0.50;;;;;;;;;;5025746;28;20021;-77
2023/01/31 00:26:34;;;;;;;0.60;0.45;;;;;;;;;;5025559;28;20290;-77
2023/01/31 00:29:01;;;;;;;3.08;0.50;;;;;;;;;;5026328;28;20026;-77
2023/01/31 00:31:28;;;;;;;0.40;0.30;;;;;;;;;;5025828;28;20036;-77
2023/01/31 00:33:55;;;;;;;0.50;0.50;;;;;;;;;;5026505;28;20314;-76
2023/01/31 00:36:23;;;;;;;0.20;0.20;;;;;;;;;;5029488;28;20030;-77
2023/01/31 00:38:50;;;;;;;0.55;0.28;;;;;;;;;;5029422;28;20446;-77
2023/01/31 00:41:17;;;;;;;0.68;0.40;;;;;;;;;;5030080;28;20028;-76
2023/01/31 00:43:43;;;;;;;2.15;0.60;;;;;;;;;;5029655;28;20066;-77
2023/01/31 00:46:09;;;;;;;1.85;0.40;;;;;;;;;;5029388;28;20349;-76
2023/01/31 00:48:35;;;;;;;0.40;0.40;;;;;;;;;;5029351;28;20022;-77
2023/01/31 00:51:01;;;;;;;0.52;0.30;;;;;;;;;;5029897;28;20383;-77
2023/01/31 00:53:27;;;;;;;2.30;0.40;;;;;;;;;;5029486;28;20045;-77
2023/01/31 00:55:54;;;;;;;0.93;0.50;;;;;;;;;;5029097;28;20271;-77
2023/01/31 00:58:20;;;;;;;1.92;0.47;;;;;;;;;;5029054;28;20469;-77
2023/01/31 01:00:46;;;;;;;2.63;0.50;;;;;;;;;;5029361;28;20045;-77
2023/01/31 01:03:12;;;;;;;0.30;0.30;;;;;;;;;;5029299;28;20104;-76
2023/01/31 01:05:38;;;;;;;1.05;0.38;;;;;;;;;;5029149;28;20210;-76
2023/01/31 01:08:05;;;;;;;2.33;0.40;;;;;;;;;;5029082;28;20025;-77
2023/01/31 01:10:31;;;;;;;1.48;0.65;;;;;;;;;;5029540;28;20045;-77
2023/01/31 01:12:57;;;;;;;0.63;0.43;;;;;;;;;;5032708;28;20021;-77
2023/01/31 01:15:23;;;;;;;1.27;0.40;;;;;;;;;;5029247;28;20787;-77
2023/01/31 01:17:49;;;;;;;0.15;0.15;;;;;;;;;;5028897;28;20363;-77
2023/01/31 01:20:16;;;;;;;0.95;0.40;;;;;;;;;;5029524;28;20021;-77
2023/01/31 01:22:42;;;;;;;0.45;0.45;;;;;;;;;;5028441;28;20455;-77
2023/01/31 01:25:08;;;;;;;2.58;0.40;;;;;;;;;;5028949;28;20071;-77
2023/01/31 01:27:34;;;;;;;1.45;0.63;;;;;;;;;;5028623;28;20033;-77
2023/01/31 01:30:00;;;;;;;1.50;0.60;;;;;;;;;;5029032;28;20521;-77
2023/01/31 01:32:27;;;;;;;0.73;0.70;;;;;;;;;;5028606;28;20485;-77
2023/01/31 01:34:53;;;;;;;0.75;0.32;;;;;;;;;;5028645;28;20082;-78
2023/01/31 01:37:19;;;;;;;0.47;0.38;;;;;;;;;;5028917;28;20036;-77
2023/01/31 01:39:45;;;;;;;2.25;0.57;;;;;;;;;;5028803;28;20021;-76
2023/01/31 01:42:15;;;;;;;1.02;0.20;;;;;;;;;;5028261;28;20504;-77
2023/01/31 01:44:46;;;;;;;2.35;0.63;;;;;;;;;;5027809;28;20053;-77
2023/01/31 01:47:26;;;;;;;0.75;0.40;;;;;;;;;;5027741;28;20156;-77
2023/01/31 01:49:59;;;;;;;0.40;0.40;;;;;;;;;;5028077;28;20629;-77
2023/01/31 01:52:26;;;;;;;0.50;0.50;;;;;;;;;;5028103;28;20051;-77
2023/01/31 01:54:55;;;;;;;1.13;0.30;;;;;;;;;;5028152;28;20776;-77
2023/01/31 01:57:23;;;;;;;2.45;0.82;;;;;;;;;;5027991;28;20018;-77
2023/01/31 01:59:54;;;;;;;3.42;0.52;;;;;;;;;;5027713;28;20145;-77
2023/01/31 02:02:20;;;;;;;0.50;0.43;;;;;;;;;;5028002;28;20112;-77
2023/01/31 02:04:49;;;;;;;1.88;0.30;;;;;;;;;;5028530;28;20037;-77
2023/01/31 02:07:15;;;;;;;3.50;0.38;;;;;;;;;;5029123;28;20056;-76
2023/01/31 02:09:52;;;;;;;0.32;0.32;;;;;;;;;;5027998;28;20040;-77
2023/01/31 02:12:18;;;;;;;0.90;0.47;;;;;;;;;;5032118;28;20462;-76
2023/01/31 02:14:45;;;;;;;1.88;0.38;;;;;;;;;;5028113;28;20060;-76
2023/01/31 02:17:13;;;;;;;0.50;0.35;;;;;;;;;;5027851;28;20036;-76
2023/01/31 02:19:58;;;;;;;1.45;0.55;;;;;;;;;;5027757;28;20222;-76
2023/01/31 02:22:26;;;;;;;0.52;0.40;;;;;;;;;;5027869;28;20227;-76
2023/01/31 02:25:13;;;;;;;0.50;0.38;;;;;;;;;;5027474;28;20733;-76
2023/01/31 02:27:39;;;;;;;0.68;0.32;;;;;;;;;;5027486;28;20094;-76
2023/01/31 02:30:21;;;;;;;0.52;0.50;;;;;;;;;;5027670;28;20743;-76
2023/01/31 02:32:49;;;;;;;0.65;0.45;;;;;;;;;;5027851;28;20030;-76
2023/01/31 02:35:27;;;;;;;0.55;0.35;;;;;;;;;;5028294;28;20041;-77
2023/01/31 02:38:07;;;;;;;0.73;0.35;;;;;;;;;;5027542;28;20026;-76
2023/01/31 02:40:48;;;;;;;0.20;0.20;;;;;;;;;;5027677;28;20056;-76
2023/01/31 02:43:20;;;;;;;0.52;0.52;;;;;;;;;;5028464;28;20084;-76
2023/01/31 02:45:46;;;;;;;;;;;;;;;;;;5028162;28;20029;-76
2023/01/31 02:48:15;;;;;;;0.47;0.30;;;;;;;;;;5027590;28;20376;-76
2023/01/31 02:50:46;;;;;;;0.70;0.70;;;;;;;;;;5027029;28;20389;-77
2023/01/31 02:53:28;;;;;;;0.73;0.50;;;;;;;;;;5027685;28;20064;-76
2023/01/31 02:56:18;;;;;;;3.03;0.52;;;;;;;;;;5027013;28;20223;-76
2023/01/31 02:58:54;;;;;;;0.32;0.30;;;;;;;;;;5027583;28;20022;-76
2023/01/31 03:01:24;;;;;;;0.65;0.40;;;;;;;;;;5027004;28;20041;-77
2023/01/31 03:03:51;;;;;;;1.05;0.32;;;;;;;;;;5026943;28;20022;-76
2023/01/31 03:06:23;;;;;;;1.38;0.50;;;;;;;;;;5027757;28;20033;-76
2023/01/31 03:09:08;;;;;;;0.40;0.30;;;;;;;;;;5026903;28;20025;-76
2023/01/31 03:11:48;;;;;;;1.85;1.17;;;;;;;;;;5030784;28;20032;-76
2023/01/31 03:14:17;;;;;;;0.30;0.30;;;;;;;;;;5027605;28;20385;-76
2023/01/31 03:20:03;;;;;;;0.20;0.20;;;;;;;;;;5027514;28;20624;-76
2023/01/31 03:22:40;;;;;;;1.08;0.70;;;;;;;;;;5006207;28;20397;-76
2023/01/31 03:25:07;;;;;;;0.45;0.30;;;;;;;;;;5026795;28;20021;-76
2023/01/31 03:27:34;;;;;;;0.98;0.32;;;;;;;;;;5027060;28;20025;-76
2023/01/31 03:30:06;;;;;;;1.30;0.50;;;;;;;;;;5027245;28;20033;-76
2023/01/31 03:32:35;;;;;;;2.90;0.43;;;;;;;;;;5026895;28;20116;-76
2023/01/31 03:35:01;;;;;;;0.88;0.40;;;;;;;;;;5027033;28;20458;-76
2023/01/31 03:37:39;;;;;;;0.28;0.22;;;;;;;;;;5026473;28;20086;-76
2023/01/31 03:40:09;;;;;;;0.25;0.25;;;;;;;;;;5026564;28;20108;-77
2023/01/31 03:42:42;;;;;;;0.87;0.37;;;;;;;;;;5026453;28;20029;-76
2023/01/31 03:45:18;;;;;;;0.35;0.28;;;;;;;;;;5026464;28;20394;-76
2023/01/31 03:47:45;;;;;;;1.10;0.30;;;;;;;;;;5026369;28;20033;-76
2023/01/31 03:50:21;;;;;;;0.80;0.50;;;;;;;;;;5026352;28;20025;-76
2023/01/31 03:52:54;;;;;;;0.40;0.40;;;;;;;;;;5026636;28;20116;-76
2023/01/31 03:55:35;;;;;;;0.90;0.40;;;;;;;;;;5025943;28;20034;-76
2023/01/31 03:58:02;;;;;;;1.58;0.40;;;;;;;;;;5026818;28;20440;-77
2023/01/31 04:00:28;;;;;;;0.60;0.40;;;;;;;;;;5026150;28;20128;-76
2023/01/31 04:03:03;;;;;;;0.45;0.45;;;;;;;;;;5025940;28;20033;-76
2023/01/31 04:05:31;;;;;;;0.95;0.57;;;;;;;;;;5026222;28;20071;-76
2023/01/31 04:07:57;;;;;;;0.88;0.50;;;;;;;;;;5025699;28;20025;-76
2023/01/31 04:10:25;;;;;;;0.98;0.30;;;;;;;;;;5025624;28;20525;-77
2023/01/31 04:12:50;;;;;;;1.20;0.60;;;;;;;;;;5030032;28;20489;-76
2023/01/31 04:15:16;;;;;;;0.10;0.10;;;;;;;;;;5027103;28;20021;-76
2023/01/31 04:17:42;;;;;;;1.08;0.60;;;;;;;;;;5025640;28;20034;-76
2023/01/31 04:20:09;;;;;;;0.30;0.30;;;;;;;;;;5026613;28;20029;-76
2023/01/31 04:22:35;;;;;;;0.63;0.38;;;;;;;;;;5026137;28;20359;-76
2023/01/31 04:25:01;;;;;;;0.30;0.20;;;;;;;;;;5025916;28;20041;-77
2023/01/31 04:27:27;;;;;;;0.20;0.17;;;;;;;;;;5025904;28;20021;-76
2023/01/31 04:29:53;;;;;;;0.22;0.22;;;;;;;;;;5025425;28;20457;-77
2023/01/31 04:32:19;;;;;;;1.45;0.50;;;;;;;;;;5025974;28;20036;-77
2023/01/31 04:34:45;;;;;;;0.82;0.30;;;;;;;;;;5026341;28;20037;-76
2023/01/31 04:37:11;;;;;;;0.45;0.35;;;;;;;;;;5025518;28;20029;-76
2023/01/31 04:39:36;;;;;;;2.70;0.32;;;;;;;;;;5025389;28;20033;-77
2023/01/31 04:42:03;;;;;;;1.90;0.47;;;;;;;;;;5026017;28;20029;-76
2023/01/31 04:44:28;;;;;;;0.20;0.20;;;;;;;;;;5026016;28;20067;-76
2023/01/31 04:46:54;;;;;;;1.00;0.50;;;;;;;;;;5025711;28;20029;-76
2023/01/31 04:49:20;;;;;;;0.47;0.40;;;;;;;;;;5025715;28;20044;-77
2023/01/31 04:51:46;;;;;;;0.75;0.40;;;;;;;;;;5025893;28;20022;-76
2023/01/31 04:54:12;;;;;;;0.10;0.10;;;;;;;;;;5025966;28;20032;-76
2023/01/31 04:56:38;;;;;;;0.77;0.50;;;;;;;;;;5025477;28;20119;-76
2023/01/31 04:59:04;;;;;;;0.50;0.40;;;;;;;;;;5025373;28;20033;-76
2023/01/31 05:01:30;;;;;;;0.32;0.28;;;;;;;;;;5025816;28;20054;-76
2023/01/31 05:03:56;;;;;;;0.57;0.32;;;;;;;;;;5025274;28;20029;-76
2023/01/31 05:06:22;;;;;;;0.55;0.25;;;;;;;;;;5025343;28;20064;-76
2023/01/31 05:08:48;;;;;;;1.75;0.30;;;;;;;;;;5025283;28;20030;-76
2023/01/31 05:11:14;;;;;;;2.22;0.85;;;;;;;;;;5029007;28;20554;-76
2023/01/31 05:13:41;;;;;;;5.25;0.55;;;;;;;;;;5025658;28;20026;-76
2023/01/31 05:16:09;;;;;;;2.03;0.28;;;;;;;;;;5025353;28;20298;-76
2023/01/31 05:18:35;;;;;;;3.60;0.55;;;;;;;;;;5025381;28;20354;-76
2023/01/31 05:21:02;;;;;;;0.93;0.28;;;;;;;;;;5028374;28;20024;-76
2023/01/31 05:23:28;;;;;;;0.47;0.30;;;;;;;;;;5029227;28;20018;-76
2023/01/31 05:25:54;;;;;;;0.52;0.40;;;;;;;;;;5028687;28;20026;-76
2023/01/31 05:28:20;;;;;;;0.85;0.50;;;;;;;;;;5029079;28;20110;-76
2023/01/31 05:30:46;;;;;;;0.43;0.25;;;;;;;;;;5029026;28;20025;-76
2023/01/31 05:33:12;;;;;;;1.10;0.35;;;;;;;;;;5028921;28;20556;-76
2023/01/31 05:35:40;;;;;;;1.40;0.50;;;;;;;;;;5028446;28;20083;-76
2023/01/31 05:38:06;;;;;;;1.48;0.20;;;;;;;;;;5010840;28;20021;-76
2023/01/31 05:40:32;;;;;;;0.68;0.30;;;;;;;;;;5028786;28;20042;-76
2023/01/31 05:43:02;;;;;;;1.38;0.30;;;;;;;;;;5028770;28;20021;-75
2023/01/31 05:45:29;;;;;;;1.67;0.55;;;;;;;;;;5028771;28;20041;-76
2023/01/31 05:47:56;;;;;;;0.60;0.45;;;;;;;;;;5028398;28;20060;-76
2023/01/31 05:50:22;;;;;;;1.10;0.50;;;;;;;;;;5028465;28;20362;-76
2023/01/31 05:52:51;;;;;;;0.20;0.20;;;;;;;;;;5028677;28;20049;-76
2023/01/31 05:55:17;;;;;;;0.40;0.32;;;;;;;;;;5028553;28;20469;-76
2023/01/31 05:57:43;;;;;;;1.33;0.40;;;;;;;;;;5028407;28;20033;-76
2023/01/31 06:00:10;;;;;;;1.85;0.57;;;;;;;;;;5028038;28;20092;-76
2023/01/31 06:02:36;;;;;;;0.90;0.60;;;;;;;;;;5028135;28;20493;-76
2023/01/31 06:05:02;;;;;;;0.25;0.20;;;;;;;;;;5028387;28;20041;-76
2023/01/31 06:07:28;;;;;;;0.75;0.50;;;;;;;;;;5028331;28;20040;-76
2023/01/31 06:09:54;;;;;;;0.45;0.40;;;;;;;;;;5027735;28;20187;-77
2023/01/31 06:12:20;;;;;;;3.08;0.40;;;;;;;;;;5031705;28;20055;-76
2023/01/31 06:14:46;;;;;;;0.38;0.38;;;;;;;;;;5028301;28;20030;-76
2023/01/31 06:17:12;;;;;;;0.90;0.40;;;;;;;;;;5027928;28;20088;-75
2023/01/31 06:19:38;;;;;;;1.58;0.50;;;;;;;;;;5027732;28;20506;-76
2023/01/31 06:22:04;;;;;;;0.50;0.32;;;;;;;;;;5027876;28;20504;-76
2023/01/31 06:24:30;;;;;;;1.00;0.40;;;;;;;;;;5028237;28;20021;-76
2023/01/31 06:26:56;;;;;;;1.13;0.30;;;;;;;;;;5027511;28;20029;-77
2023/01/31 06:29:22;;;;;;;1.50;0.57;;;;;;;;;;5027709;28;20658;-76
2023/01/31 06:31:48;;;;;;;0.63;0.40;;;;;;;;;;5027206;28;20037;-76
2023/01/31 06:34:14;;;;;;;1.17;0.38;;;;;;;;;;5028139;28;20501;-76
2023/01/31 06:36:40;;;;;;;1.80;0.88;;;;;;;;;;5027554;28;20457;-77
2023/01/31 06:39:06;;;;;;;1.02;0.60;;;;;;;;;;5027344;28;20022;-77
2023/01/31 06:41:32;;;;;;;0.82;0.40;;;;;;;;;;5027800;28;20029;-76
2023/01/31 06:43:58;;;;;;;0.60;0.52;;;;;;;;;;5027452;28;20490;-76
2023/01/31 06:46:24;;;;;;;1.98;0.55;;;;;;;;;;5027612;28;20049;-76
2023/01/31 06:48:50;;;;;;;0.65;0.40;;;;;;;;;;5027023;28;20440;-76
2023/01/31 06:51:16;;;;;;;3.70;0.60;;;;;;;;;;5027800;28;20039;-76
2023/01/31 06:53:42;;;;;;;0.65;0.45;;;;;;;;;;5009371;28;20026;-76
2023/01/31 06:56:08;;;;;;;0.55;0.30;;;;;;;;;;5027270;28;20048;-75
2023/01/31 06:58:34;;;;;;;1.27;0.50;;;;;;;;;;5026971;28;20041;-75
2023/01/31 07:01:13;;;;;;;0.63;0.43;;;;;;;;;;5027205;28;20057;-76
2023/01/31 07:03:39;;;;;;;1.92;0.52;;;;;;;;;;5026779;28;20022;-76
2023/01/31 07:06:06;;;;;;;0.70;0.43;;;;;;;;;;5026992;28;20033;-76
2023/01/31 07:08:32;;;;;;;0.65;0.40;;;;;;;;;;5027191;28;20025;-76
2023/01/31 07:11:00;;;;;;;1.05;0.50;;;;;;;;;;5028122;28;20052;-76
2023/01/31 07:13:27;;;;;;;0.17;0.17;;;;;;;;;;5028940;28;20029;-76
2023/01/31 07:15:53;;;;;;;0.77;0.20;;;;;;;;;;5026842;28;20025;-76
2023/01/31 07:18:19;;;;;;;0.80;0.55;;;;;;;;;;5027044;28;20031;-76
2023/01/31 07:20:45;;;;;;;0.98;0.50;;;;;;;;;;5027016;28;20285;-76
2023/01/31 07:23:11;;;;;;;0.32;0.30;;;;;;;;;;5026489;28;20045;-76
2023/01/31 07:25:37;;;;;;;2.88;0.70;;;;;;;;;;5026540;28;20202;-76
2023/01/31 07:28:03;;;;;;;1.27;0.95;;;;;;;;;;5026739;28;20108;-76
2023/01/31 07:30:30;;;;;;;1.42;0.40;;;;;;;;;;5027175;28;20036;-76
2023/01/31 07:32:56;;;;;;;0.57;0.47;;;;;;;;;;5026248;28;20026;-76
2023/01/31 07:35:22;;;;;;;1.13;0.50;;;;;;;;;;5037446;28;20111;-76
2023/01/31 07:37:50;;;;;;;0.80;0.30;;;;;;;;;;5046528;28;20538;-76
2023/01/31 07:40:16;;;;;;;1.17;0.38;;;;;;;;;;5046805;28;20083;-76
2023/01/31 07:42:42;;;;;;;1.02;0.40;;;;;;;;;;5041339;28;20398;-76
2023/01/31 07:45:11;;;;;;;0.52;0.30;;;;;;;;;;5026096;28;20048;-76
2023/01/31 07:47:37;;;;;;;0.32;0.32;;;;;;;;;;5026218;28;20352;-76
2023/01/31 07:50:03;;;;;;;0.43;0.28;;;;;;;;;;5026533;28;20140;-76
2023/01/31 07:52:29;;;;;;;1.30;0.50;;;;;;;;;;5026863;28;20033;-76
2023/01/31 07:54:55;;;;;;;0.40;0.40;;;;;;;;;;5025994;28;20025;-76
2023/01/31 07:57:21;;;;;;;0.93;0.50;;;;;;;;;;5026210;28;20029;-76
2023/01/31 07:59:47;;;;;;;0.65;0.65;;;;;;;;;;5026377;28;20450;-77
2023/01/31 08:04:59;;;;;;;0.38;0.35;;;;;;;;;;5026311;28;20405;-77
2023/01/31 08:07:25;;;;;;;1.05;0.60;;;;;;;;;;5025854;28;20492;-75
2023/01/31 08:09:51;;;;;;;1.48;0.43;;;;;;;;;;5025557;28;20462;-75
2023/01/31 08:12:17;;;;;;;0.70;0.40;;;;;;;;;;5029530;28;20030;-75
2023/01/31 08:14:43;;;;;;;1.65;0.40;;;;;;;;;;5025930;28;20171;-76
2023/01/31 08:17:09;;;;;;;0.30;0.30;;;;;;;;;;5025829;28;20206;-75
2023/01/31 08:19:35;;;;;;;0.45;0.40;;;;;;;;;;5025492;28;20040;-75
2023/01/31 08:22:03;;;;;;;2.03;0.60;;;;;;;;;;5026167;28;20352;-75
2023/01/31 08:24:29;;;;;;;0.50;0.32;;;;;;;;;;5026287;28;20452;-75
2023/01/31 08:26:55;;;;;;;1.73;0.73;;;;;;;;;;5025350;28;20033;-75
2023/01/31 08:29:21;;;;;;;3.30;0.40;;;;;;;;;;5025591;28;20032;-75
2023/01/31 08:31:48;;;;;;;1.98;0.60;;;;;;;;;;5025885;28;20071;-75
2023/01/31 08:34:13;;;;;;;0.35;0.35;;;;;;;;;;5025879;28;20060;-75
2023/01/31 08:36:43;;;;;;;2.65;0.40;;;;;;;;;;5025835;28;20028;-76
2023/01/31 08:39:09;;;;;;;1.10;0.80;;;;;;;;;;5025579;28;20022;-75
2023/01/31 08:41:36;;;;;;;2.67;0.30;;;;;;;;;;5025449;28;20021;-76
2023/01/31 08:44:03;;;;;;;0.68;0.45;;;;;;;;;;5025740;28;20037;-75
2023/01/31 08:46:35;;;;;;;2.70;0.60;;;;;;;;;;5026345;28;20110;-76
2023/01/31 08:49:03;;;;;;;3.65;0.43;;;;;;;;;;5025734;28;20520;-75
2023/01/31 08:51:29;;;;;;;1.98;0.55;;;;;;;;;;5025947;28;20052;-75
2023/01/31 08:53:55;;;;;;;2.05;0.57;;;;;;;;;;5025080;28;20053;-75
2023/01/31 08:56:24;;;;;;;0.63;0.30;;;;;;;;;;5028881;28;20033;-76
2023/01/31 08:58:50;;;;;;;2.38;0.32;;;;;;;;;;5028946;28;20029;-75
2023/01/31 09:01:17;;;;;;;0.55;0.40;;;;;;;;;;5029589;28;20049;-75
2023/01/31 09:03:43;;;;;;;2.05;0.68;;;;;;;;;;5029454;28;20524;-75
2023/01/31 09:06:14;;;;;;;1.92;0.43;;;;;;;;;;5029190;28;20532;-76
2023/01/31 09:08:40;;;;;;;1.77;0.38;;;;;;;;;;5029119;28;20036;-75
2023/01/31 09:11:06;;;;;;;0.35;0.35;;;;;;;;;;5030614;28;20029;-75
2023/01/31 09:13:33;;;;;;;1.33;0.65;;;;;;;;;;5030739;28;20021;-76
2023/01/31 09:16:04;;;;;;;1.90;0.40;;;;;;;;;;5029350;28;20104;-75
2023/01/31 09:18:30;;;;;;;0.53;0.53;;;;;;;;;;5029450;28;20100;-75
2023/01/31 09:20:56;;;;;;;2.13;0.68;;;;;;;;;;5028663;28;20021;-75
2023/01/31 09:23:22;;;;;;;0.25;0.22;;;;;;;;;;5028765;28;20533;-75
2023/01/31 09:25:52;;;;;;;0.43;0.40;;;;;;;;;;5028854;28;20482;-75
2023/01/31 09:28:18;;;;;;;0.85;0.40;;;;;;;;;;5029087;28;20049;-76
2023/01/31 09:30:44;;;;;;;0.80;0.40;;;;;;;;;;5029190;28;20029;-76
2023/01/31 09:33:10;;;;;;;0.90;0.38;;;;;;;;;;5028606;28;20520;-76
2023/01/31 09:35:36;;;;;;;1.17;0.52;;;;;;;;;;5029002;28;20408;-75
2023/01/31 09:38:05;;;;;;;1.00;0.52;;;;;;;;;;5048770;28;20017;-75
2023/01/31 09:40:32;;;;;;;0.68;0.50;;;;;;;;;;5048973;28;20550;-75
2023/01/31 09:43:01;;;;;;;0.22;0.17;;;;;;;;;;5048398;28;20469;-75
2023/01/31 09:45:27;;;;;;;0.75;0.55;;;;;;;;;;5048563;28;20085;-76
2023/01/31 09:47:54;;;;;;;0.40;0.38;;;;;;;;;;5048289;28;20296;-76
2023/01/31 09:50:23;;;;;;;0.80;0.30;;;;;;;;;;5048288;28;20053;-75
2023/01/31 09:52:50;;;;;;;1.23;0.30;;;;;;;;;;5048279;28;20112;-75
2023/01/31 09:55:16;;;;;;;0.98;0.70;;;;;;;;;;5048423;28;20029;-76
2023/01/31 09:57:57;;;;;;;0.43;0.30;;;;;;;;;;5048108;28;20469;-75
2023/01/31 10:00:24;;;;;;;0.70;0.35;;;;;;;;;;5047964;28;20413;-75
2023/01/31 10:03:03;;;;;;;0.30;0.30;;;;;;;;;;5048034;28;20028;-76
2023/01/31 10:05:36;;;;;;;1.00;0.95;;;;;;;;;;5028751;28;20426;-76
2023/01/31 10:08:15;;;;;;;1.15;0.40;;;;;;;;;;5027683;28;20032;-75
2023/01/31 10:10:58;;;;;;;0.30;0.30;;;;;;;;;;5028120;28;20034;-75
2023/01/31 10:13:30;;;;;;;0.38;0.38;;;;;;;;;;5025393;28;20026;-75
2023/01/31 10:16:16;;;;;;;1.17;0.70;;;;;;;;;;5027682;28;20036;-75
2023/01/31 10:18:44;;;;;;;2.00;0.57;;;;;;;;;;4978044;28;20128;-76
2023/01/31 10:21:13;;;;;;;1.58;0.57;;;;;;;;;;5027925;28;20034;-75
2023/01/31 10:23:46;;;;;;;0.63;0.52;;;;;;;;;;5027825;28;20021;-76
2023/01/31 10:26:16;;;;;;;2.70;0.75;;;;;;;;;;5027619;28;20513;-76
2023/01/31 10:28:47;;;;;;;1.23;0.50;;;;;;;;;;5027678;28;20079;-76
2023/01/31 10:31:26;;;;;;;0.30;0.30;;;;;;;;;;5027844;28;20099;-75
2023/01/31 10:33:54;;;;;;;4.30;0.47;;;;;;;;;;5027426;28;20039;-76
2023/01/31 10:36:26;;;;;;;2.65;0.47;;;;;;;;;;5027475;28;20033;-75
2023/01/31 10:39:05;;;;;;;0.40;0.40;;;;;;;;;;5027291;28;20025;-75
2023/01/31 10:41:47;;;;;;;2.15;0.52;;;;;;;;;;5028166;28;20374;-76
2023/01/31 10:44:20;;;;;;;0.52;0.50;;;;;;;;;;5027472;28;20028;-75
2023/01/31 10:46:46;;;;;;;1.23;0.40;;;;;;;;;;5027947;28;20386;-75
2023/01/31 10:49:12;;;;;;;1.52;0.40;;;;;;;;;;5044885;28;20040;-76
2023/01/31 10:51:50;;;;;;;0.30;0.30;;;;;;;;;;5046945;28;20468;-76
2023/01/31 10:54:34;;;;;;;1.55;0.50;;;;;;;;;;5047444;28;20033;-75
2023/01/31 10:57:00;;;;;;;0.40;0.30;;;;;;;;;;5047549;28;20045;-75
2023/01/31 10:59:33;;;;;;;0.60;0.55;;;;;;;;;;5046772;28;20111;-75
2023/01/31 11:02:00;;;;;;;0.68;0.45;;;;;;;;;;5046961;28;20029;-76
2023/01/31 11:04:31;;;;;;;1.45;1.00;;;;;;;;;;5035897;28;20023;-75
2023/01/31 11:06:59;;;;;;;0.80;0.47;;;;;;;;;;5026539;28;20398;-75
2023/01/31 11:09:27;;;;;;;1.33;0.47;;;;;;;;;;5026922;28;20042;-76
2023/01/31 11:12:00;;;;;;;2.10;0.55;;;;;;;;;;5029941;28;20026;-76
2023/01/31 11:14:28;;;;;;;0.32;0.20;;;;;;;;;;5026893;28;20029;-76
2023/01/31 11:17:12;;;;;;;2.10;0.60;;;;;;;;;;5026435;28;20033;-76
2023/01/31 11:19:45;;;;;;;0.45;0.30;;;;;;;;;;5026560;28;20208;-75
2023/01/31 11:22:20;;;;;;;0.22;0.22;;;;;;;;;;5026422;28;20108;-75
2023/01/31 11:24:48;;;;;;;1.38;0.60;;;;;;;;;;5027071;28;20036;-75
2023/01/31 11:27:22;;;;;;;0.50;0.50;;;;;;;;;;5026682;28;20026;-75
2023/01/31 11:29:49;;;;;;;2.17;0.90;;;;;;;;;;5026962;28;20128;-75
2023/01/31 11:32:20;;;;;;;0.30;0.30;;;;;;;;;;5026999;28;20041;-75
2023/01/31 11:34:56;;;;;;;1.07;0.47;;;;;;;;;;5027058;28;20032;-75
2023/01/31 11:37:22;;;;;;;1.08;0.32;;;;;;;;;;5026204;28;20029;-75
2023/01/31 11:40:14;;;;;;;1.75;0.60;;;;;;;;;;5026709;28;20037;-75
2023/01/31 11:42:53;;;;;;;0.77;0.52;;;;;;;;;;5020271;28;20038;-75
2023/01/31 11:45:22;;;;;;;1.65;0.40;;;;;;;;;;5026457;28;20026;-75
2023/01/31 11:47:52;;;;;;;2.50;0.75;;;;;;;;;;5026756;28;20028;-76
2023/01/31 11:50:36;;;;;;;1.10;0.50;;;;;;;;;;5026433;28;20389;-75
2023/01/31 11:53:04;;;;;;;1.95;0.52;;;;;;;;;;5026463;28;20474;-75
2023/01/31 11:55:35;;;;;;;1.73;0.57;;;;;;;;;;5026416;28;20079;-76
2023/01/31 11:58:02;;;;;;;0.63;0.47;;;;;;;;;;5026285;28;20037;-75
2023/01/31 12:00:30;;;;;;;2.08;0.50;;;;;;;;;;5025941;28;20049;-76
2023/01/31 12:03:02;;;;;;;3.75;0.90;;;;;;;;;;5025896;28;20031;-75
2023/01/31 12:05:35;;;;;;;0.55;0.38;;;;;;;;;;5026195;28;20024;-75
2023/01/31 12:08:01;;;;;;;2.40;0.80;;;;;;;;;;5026163;28;20457;-74
2023/01/31 12:10:31;;;;;;;1.48;0.88;;;;;;;;;;5025908;28;20486;-76
2023/01/31 12:13:02;;;;;;;2.77;0.73;;;;;;;;;;5029294;28;20021;-75
2023/01/31 12:15:30;;;;;;;1.80;0.55;;;;;;;;;;5026057;28;20032;-74
2023/01/31 12:17:57;;;;;;;1.50;0.50;;;;;;;;;;5025406;28;20115;-74
2023/01/31 12:20:35;;;;;;;1.90;0.45;;;;;;;;;;5025755;28;20410;-75
2023/01/31 12:23:02;;;;;;;1.60;0.77;;;;;;;;;;5026215;28;20026;-74
2023/01/31 12:25:45;;;;;;;1.02;0.52;;;;;;;;;;5026007;28;20022;-74
2023/01/31 12:28:26;;;;;;;1.98;0.50;;;;;;;;;;5025426;28;20452;-75
2023/01/31 12:30:52;;;;;;;0.77;0.50;;;;;;;;;;5025052;28;20371;-75
2023/01/31 12:33:21;;;;;;;0.70;0.47;;;;;;;;;;5025943;28;20044;-75
2023/01/31 12:35:55;;;;;;;0.80;0.45;;;;;;;;;;5025940;28;20033;-75
2023/01/31 12:38:20;;;;;;;1.52;0.50;;;;;;;;;;5025501;28;20041;-75
2023/01/31 12:41:10;;;;;;;1.23;0.40;;;;;;;;;;5025960;28;20087;-76
2023/01/31 12:43:48;;;;;;;0.55;0.55;;;;;;;;;;5012450;28;20121;-75
2023/01/31 12:46:14;;;;;;;1.73;0.88;;;;;;;;;;5025516;28;20038;-75
2023/01/31 12:49:04;;;;;;;1.23;0.60;;;;;;;;;;5025400;28;20048;-75
2023/01/31 12:51:38;;;;;;;0.90;0.70;;;;;;;;;;5025924;28;20386;-75
2023/01/31 12:54:10;;;;;;;0.93;0.50;;;;;;;;;;5025339;28;20045;-75
2023/01/31 12:56:46;;;;;;;0.40;0.40;;;;;;;;;;5025170;28;20041;-76
2023/01/31 12:59:26;;;;;;;1.00;0.57;;;;;;;;;;5024961;28;20083;-75
2023/01/31 13:02:07;;;;;;;2.92;0.65;;;;;;;;;;5025192;28;20037;-76
2023/01/31 13:04:36;;;;;;;2.95;0.50;;;;;;;;;;5025625;28;20040;-75
2023/01/31 13:07:04;;;;;;;1.00;0.50;;;;;;;;;;5025585;28;20117;-76
2023/01/31 13:09:32;;;;;;;1.15;0.55;;;;;;;;;;5025876;28;20018;-75
2023/01/31 13:12:04;;;;;;;1.65;0.50;;;;;;;;;;5028403;28;20029;-75
2023/01/31 13:14:32;;;;;;;2.72;0.90;;;;;;;;;;5025635;28;20108;-75
2023/01/31 13:17:00;;;;;;;0.45;0.40;;;;;;;;;;5025001;28;20029;-75
2023/01/31 13:19:29;;;;;;;2.20;0.88;;;;;;;;;;5025379;28;20069;-75
2023/01/31 13:21:57;;;;;;;1.98;0.50;;;;;;;;;;5024984;28;20552;-75
2023/01/31 13:24:26;;;;;;;1.48;0.65;;;;;;;;;;5024941;28;20315;-75
2023/01/31 13:26:56;;;;;;;3.67;0.70;;;;;;;;;;5025172;28;20124;-75
2023/01/31 13:29:25;;;;;;;1.63;0.50;;;;;;;;;;5025065;28;20039;-76
2023/01/31 13:31:56;;;;;;;4.10;0.93;;;;;;;;;;5025101;28;20487;-75
2023/01/31 13:34:26;;;;;;;1.13;0.50;;;;;;;;;;5024874;28;20033;-76
2023/01/31 13:36:55;;;;;;;0.68;0.50;;;;;;;;;;5024901;28;20142;-76
2023/01/31 13:39:31;;;;;;;0.57;0.30;;;;;;;;;;5024897;28;20017;-74
2023/01/31 13:41:57;;;;;;;1.85;0.30;;;;;;;;;;5025697;28;20029;-75
2023/01/31 13:44:23;;;;;;;0.98;0.30;;;;;;;;;;5028570;28;20025;-75
2023/01/31 13:46:52;;;;;;;0.95;0.88;;;;;;;;;;5028632;28;20029;-75
2023/01/31 13:49:24;;;;;;;0.73;0.63;;;;;;;;;;5028519;28;20397;-76
2023/01/31 13:51:53;;;;;;;1.23;0.60;;;;;;;;;;5028655;28;20412;-75
2023/01/31 13:54:23;;;;;;;3.25;0.65;;;;;;;;;;5028633;28;20057;-75
2023/01/31 13:56:51;;;;;;;2.22;0.47;;;;;;;;;;5028719;28;20424;-76
2023/01/31 13:59:20;;;;;;;1.73;0.70;;;;;;;;;;5028188;28;20032;-75
2023/01/31 14:01:48;;;;;;;1.33;0.73;;;;;;;;;;5028997;28;20021;-75
2023/01/31 14:04:14;;;;;;;2.72;0.50;;;;;;;;;;5028042;28;20083;-75
2023/01/31 14:06:55;;;;;;;1.27;0.95;;;;;;;;;;5028085;28;20022;-76
2023/01/31 14:09:23;;;;;;;2.17;0.70;;;;;;;;;;5028010;28;20034;-76
2023/01/31 14:11:50;;;;;;;0.70;0.68;;;;;;;;;;5031795;28;20393;-76
2023/01/31 14:14:18;;;;;;;1.05;0.80;;;;;;;;;;5028436;28;20026;-76
2023/01/31 14:16:45;;;;;;;2.42;0.80;;;;;;;;;;5028334;28;20029;-76
2023/01/31 14:19:23;;;;;;;1.50;0.85;;;;;;;;;;5027767;28;20022;-75
2023/01/31 14:21:53;;;;;;;1.02;0.50;;;;;;;;;;5028147;28;20022;-76
2023/01/31 14:24:20;;;;;;;0.60;0.52;;;;;;;;;;5028217;28;20330;-75
2023/01/31 14:26:46;;;;;;;1.38;0.77;;;;;;;;;;5028787;28;20033;-76
2023/01/31 14:29:17;;;;;;;1.48;0.50;;;;;;;;;;5027588;28;20036;-75
2023/01/31 14:31:44;;;;;;;0.80;0.43;;;;;;;;;;5028069;28;20064;-76
2023/01/31 14:34:18;;;;;;;0.57;0.50;;;;;;;;;;5027757;28;20029;-76
2023/01/31 14:36:56;;;;;;;0.95;0.60;;;;;;;;;;5027925;28;20028;-76
2023/01/31 14:39:45;;;;;;;1.40;0.60;;;;;;;;;;5027761;28;20120;-76
2023/01/31 14:42:26;;;;;;;1.10;0.52;;;;;;;;;;5027507;28;20140;-76
2023/01/31 14:45:02;;;;;;;1.00;0.70;;;;;;;;;;5027805;28;20421;-76
2023/01/31 14:47:46;;;;;;;0.65;0.50;;;;;;;;;;5028167;28;20500;-75
2023/01/31 14:50:22;;;;;;;0.57;0.43;;;;;;;;;;5027315;28;20037;-76
2023/01/31 14:53:06;;;;;;;0.40;0.40;;;;;;;;;;5027101;28;20082;-75
2023/01/31 14:55:44;;;;;;;0.50;0.50;;;;;;;;;;5027916;28;20142;-76
2023/01/31 14:58:19;;;;;;;0.80;0.55;;;;;;;;;;5026970;28;20025;-76
2023/01/31 15:00:50;;;;;;;1.25;0.75;;;;;;;;;;5027653;28;20041;-76
2023/01/31 15:03:35;;;;;;;1.33;0.47;;;;;;;;;;5027020;28;20033;-76